CheckWX is a tool to help pilots better visualize weather data.  It is not intended as a substitute for an official pre-flight weather briefing.

07:00:56 UTC

PAMY METAR
Mekoryuk Airport
Mekoryuk, Alaska, USA
Current

5 mins ago

PAMY 210656Z AUTO 18007KT 10SM FEW036 BKN048 04/02 A2963 RMK AO2 SLP036 T00390022
Observed
Sep-21 @ 06:56 UTC
Wind
  • 180° at 7 KTS
Visibility
10 SM
Flight Rules
VFR
Cloud Levels
  • Few at 3,600' AGL
  • Broken at 4,800' AGL
Temperature
C / 39°F
Dewpoint
C / 36°F
Humidity
87%
Altimeter
29.63" Hg
Pressure
1003.42 hPa
Previous

1 hour ago

PAMY 210556Z AUTO 21007KT 10SM FEW044 04/02 A2963 RMK AO2 SLP037 60000 T00390017 10106 20039 53001
Observed
Sep-21 @ 05:56 UTC
Wind
  • 210° at 7 KTS
Visibility
10 SM
Flight Rules
VFR
Cloud Levels
  • Few at 4,400' AGL
Temperature
C / 39°F
Dewpoint
C / 36°F
Humidity
87%
Altimeter
29.63" Hg
Pressure
1003.42 hPa
Previous

3 hours ago

PAMY 210356Z AUTO 22005KT 10SM FEW030 BKN044 07/04 A2963 RMK AO2 RAB0257E14 SLP035 P0000 T00720044
Observed
Sep-21 @ 03:56 UTC
Wind
  • 220° at 5 KTS
Visibility
10 SM
Flight Rules
VFR
Cloud Levels
  • Few at 3,000' AGL
  • Broken at 4,400' AGL
Temperature
C / 45°F
Dewpoint
C / 39°F
Humidity
81%
Altimeter
29.63" Hg
Pressure
1003.42 hPa
Current Rain
0.01"